M. Luther — WDC7372 — position and weather

sailwx.info

Track history (hours):
 
Tides and Currents Weather Stations Pressure Air Temp Water Temp Dewpoint Dewpoint Depression Visibility Wind Speed Wind Dir Waves Ship Positions

M. Luther

Owner: Salmon Bay Barge Line, Inc., Seattle, WA. More information available from US FCC via Universal Licensing System and Coast Guard Vessel Documentation Center.

Last reported at 2017-Feb-28 16:32 UTC. Time now 2017-Feb-28 17:25 UTC.
Position N 49°09' W 123°00'.

Length 28 m; draft 4.1 m.

Type: Tow > 200 m length. MMSI: 367070410.

Date/timePositionNaut miles runAvg speedWind from/ knotsBaromVisibWave heightAir tempDewpointWater temp
2017-Feb-28 16:32N 49°09' W 123°00'0 0.0
2017-Feb-28 15:32N 49°09' W 123°00'0 0.0
2017-Feb-28 14:32N 49°09' W 123°00'0 0.0
2017-Feb-28 13:32N 49°09' W 123°00'0 0.0
2017-Feb-28 12:32N 49°09' W 123°00'0 0.0
2017-Feb-28 11:32N 49°09' W 123°00'0 0.0
2017-Feb-28 10:32N 49°09' W 123°00'0 0.0
2017-Feb-28 09:32N 49°09' W 123°00'0 0.0
2017-Feb-28 08:32N 49°09' W 123°00'0 0.0
2017-Feb-28 07:32N 49°09' W 123°00'0 0.0
2017-Feb-28 06:32N 49°09' W 123°00'0 0.0
2017-Feb-28 05:32N 49°09' W 123°00'0 0.0
2017-Feb-28 04:32N 49°09' W 123°00'0 0.0
2017-Feb-28 03:32N 49°09' W 123°00'0 0.0
2017-Feb-28 02:32N 49°09' W 123°00'0 0.0
2017-Feb-28 01:32N 49°09' W 123°00'0 0.0
2017-Feb-28 00:32N 49°09' W 123°00'0 0.0
2017-Feb-27 23:32N 49°09' W 123°00'0 0.0
2017-Feb-27 22:31N 49°09' W 123°00'0 0.0
2017-Feb-27 21:31N 49°09' W 123°00'0 0.0
2017-Feb-27 20:31N 49°09' W 123°00'0 0.0
2017-Feb-27 19:31N 49°09' W 123°00'0 0.0
2017-Feb-27 18:31N 49°09' W 123°00'0 0.0
2017-Feb-27 17:31N 49°09' W 123°00'0 0.0
2017-Feb-27 16:31N 49°09' W 123°00'0 0.0
2017-Feb-27 15:31N 49°09' W 123°00'0 0.1
2017-Feb-27 14:33N 49°09' W 123°00'4 3.6
2017-Feb-27 13:34N 49°07' W 123°05'6 6.0
2017-Feb-27 12:33N 49°08' W 123°14'5 5.2
2017-Feb-27 11:34N 49°04' W 123°18'7 7.4
2017-Feb-27 10:33N 48°59' W 123°10'9 8.9
2017-Feb-27 09:33N 48°53' W 122°60'9 8.7
2017-Feb-27 08:32N 48°47' W 122°50'8 8.1
2017-Feb-27 07:34N 48°41' W 122°42'6 6.2
2017-Feb-27 06:34N 48°35' W 122°45'6 6.1
2017-Feb-27 05:34N 48°29' W 122°44'5 5.4
2017-Feb-27 04:32N 48°23' W 122°44'7 6.3
2017-Feb-27 03:30N 48°17' W 122°46'18 8.3
2017-Feb-27 01:23N 48°01' W 122°36'7 8.1
2017-Feb-27 00:34N 47°56' W 122°30'7 7.3
2017-Feb-26 23:34N 47°49' W 122°26'8 7.8
2017-Feb-26 22:34N 47°41' W 122°27'6 6.5
2017-Feb-26 21:34N 47°36' W 122°22'2 2.4
2017-Feb-26 20:32N 47°33' W 122°21'0 0.0
2017-Feb-26 19:32N 47°33' W 122°21'0 0.0
2017-Feb-26 18:28N 47°33' W 122°21'0 0.0
2017-Feb-26 17:31N 47°33' W 122°21'0 0.0
2017-Feb-26 16:28N 47°33' W 122°21'0 0.0
2017-Feb-26 15:31N 47°33' W 122°21'0 0.0
2017-Feb-26 14:32N 47°33' W 122°21'0 0.0
2017-Feb-26 13:31N 47°33' W 122°21'0 0.0
2017-Feb-26 12:28N 47°33' W 122°21'0 0.0
2017-Feb-26 11:32N 47°33' W 122°21'0 0.0
2017-Feb-26 10:31N 47°33' W 122°21'0 0.0
2017-Feb-26 09:31N 47°33' W 122°21'0 0.0
2017-Feb-26 08:31N 47°33' W 122°21'0 0.0
2017-Feb-26 07:31N 47°33' W 122°21'0 0.0
2017-Feb-26 06:28N 47°33' W 122°21'0 0.0
2017-Feb-26 05:33N 47°33' W 122°21'0 0.0
2017-Feb-26 04:34N 47°33' W 122°21'  
Track history (hours):
 
Tides and Currents Weather Stations Pressure Air Temp Water Temp Dewpoint Dewpoint Depression Visibility Wind Speed Wind Dir Waves Ship Positions

M. Luther

Owner: Salmon Bay Barge Line, Inc., Seattle, WA. More information available from US FCC via Universal Licensing System and Coast Guard Vessel Documentation Center.

Last reported at 2017-Feb-28 16:32 UTC. Time now 2017-Feb-28 17:25 UTC.
Position N 49°09' W 123°00'.

Length 28 m; draft 4.1 m.

Type: Tow > 200 m length. MMSI: 367070410.

Date/timePositionNaut miles runAvg speedWind from/ knotsBaromVisibWave heightAir tempDewpointWater temp
2017-Feb-28 16:32N 49°09' W 123°00'0 0.0
2017-Feb-28 15:32N 49°09' W 123°00'0 0.0
2017-Feb-28 14:32N 49°09' W 123°00'0 0.0
2017-Feb-28 13:32N 49°09' W 123°00'0 0.0
2017-Feb-28 12:32N 49°09' W 123°00'0 0.0
2017-Feb-28 11:32N 49°09' W 123°00'0 0.0
2017-Feb-28 10:32N 49°09' W 123°00'0 0.0
2017-Feb-28 09:32N 49°09' W 123°00'0 0.0
2017-Feb-28 08:32N 49°09' W 123°00'0 0.0
2017-Feb-28 07:32N 49°09' W 123°00'0 0.0
2017-Feb-28 06:32N 49°09' W 123°00'0 0.0
2017-Feb-28 05:32N 49°09' W 123°00'0 0.0
2017-Feb-28 04:32N 49°09' W 123°00'0 0.0
2017-Feb-28 03:32N 49°09' W 123°00'0 0.0
2017-Feb-28 02:32N 49°09' W 123°00'0 0.0
2017-Feb-28 01:32N 49°09' W 123°00'0 0.0
2017-Feb-28 00:32N 49°09' W 123°00'0 0.0
2017-Feb-27 23:32N 49°09' W 123°00'0 0.0
2017-Feb-27 22:31N 49°09' W 123°00'0 0.0
2017-Feb-27 21:31N 49°09' W 123°00'0 0.0
2017-Feb-27 20:31N 49°09' W 123°00'0 0.0
2017-Feb-27 19:31N 49°09' W 123°00'0 0.0
2017-Feb-27 18:31N 49°09' W 123°00'0 0.0
2017-Feb-27 17:31N 49°09' W 123°00'0 0.0
2017-Feb-27 16:31N 49°09' W 123°00'0 0.0
2017-Feb-27 15:31N 49°09' W 123°00'0 0.1
2017-Feb-27 14:33N 49°09' W 123°00'4 3.6
2017-Feb-27 13:34N 49°07' W 123°05'6 6.0
2017-Feb-27 12:33N 49°08' W 123°14'5 5.2
2017-Feb-27 11:34N 49°04' W 123°18'7 7.4
2017-Feb-27 10:33N 48°59' W 123°10'9 8.9
2017-Feb-27 09:33N 48°53' W 122°60'9 8.7
2017-Feb-27 08:32N 48°47' W 122°50'8 8.1
2017-Feb-27 07:34N 48°41' W 122°42'6 6.2
2017-Feb-27 06:34N 48°35' W 122°45'6 6.1
2017-Feb-27 05:34N 48°29' W 122°44'5 5.4
2017-Feb-27 04:32N 48°23' W 122°44'7 6.3
2017-Feb-27 03:30N 48°17' W 122°46'18 8.3
2017-Feb-27 01:23N 48°01' W 122°36'7 8.1
2017-Feb-27 00:34N 47°56' W 122°30'7 7.3
2017-Feb-26 23:34N 47°49' W 122°26'8 7.8
2017-Feb-26 22:34N 47°41' W 122°27'6 6.5
2017-Feb-26 21:34N 47°36' W 122°22'2 2.4
2017-Feb-26 20:32N 47°33' W 122°21'0 0.0
2017-Feb-26 19:32N 47°33' W 122°21'0 0.0
2017-Feb-26 18:28N 47°33' W 122°21'0 0.0
2017-Feb-26 17:31N 47°33' W 122°21'0 0.0
2017-Feb-26 16:28N 47°33' W 122°21'0 0.0
2017-Feb-26 15:31N 47°33' W 122°21'0 0.0
2017-Feb-26 14:32N 47°33' W 122°21'0 0.0
2017-Feb-26 13:31N 47°33' W 122°21'0 0.0
2017-Feb-26 12:28N 47°33' W 122°21'0 0.0
2017-Feb-26 11:32N 47°33' W 122°21'0 0.0
2017-Feb-26 10:31N 47°33' W 122°21'0 0.0
2017-Feb-26 09:31N 47°33' W 122°21'0 0.0
2017-Feb-26 08:31N 47°33' W 122°21'0 0.0
2017-Feb-26 07:31N 47°33' W 122°21'0 0.0
2017-Feb-26 06:28N 47°33' W 122°21'0 0.0
2017-Feb-26 05:33N 47°33' W 122°21'0 0.0
2017-Feb-26 04:34N 47°33' W 122°21'  

Dump ship's entire track history